HLLM

Mitiga Airport

Tripoli, Libya
TAF HLLM 201100Z 2012/2112 27010KT 9999 FEW025 BECMG 2018/2020 VRB02KT 8000 BECMG 2100/2102 18010KT PROB40TEMPO 2106/2112 5000 RA SCT025 BKN080
Issued Valid From Valid To
Jan-20 @ 11:00 UTC
(10 hours ago)
Jan-20 @ 12:00 UTC
(9 hours ago)
Jan-21 @ 12:00 UTC
(in 15 hours)
Expired Click to View Jan-20 @ 12:00 to Jan-20 @ 18:00
TAF HLLM 201100Z 2012/2112 27010KT 9999 FEW025
Wind Visibility Clouds
270° at 10 knots 10,000+ meters
  • Few at 2,500' AGL
Becoming Jan-20 @ 18:00 to Jan-21 @ 00:00
BECMG 2018/2020 VRB02KT 8000
Wind Visibility Clouds
Variable at 2 knots 7,998 meters
  • Few at 2,500' AGL
Becoming Jan-21 @ 00:00 to Jan-21 @ 12:00
BECMG 2100/2102 18010KT
Wind Visibility Clouds
180° at 10 knots 7,998 meters
  • Few at 2,500' AGL
Temporary  (Probability 40%) Jan-21 @ 06:00 to Jan-21 @ 12:00
PROB40TEMPO 2106/2112 5000 RA SCT025 BKN080
Visibility Clouds Conditions
5,005 meters
  • Scattered at 2,500' AGL
  • Broken at 8,000' AGL
  • Rain
TAF HLLM 201100Z 2012/2112 27010KT 9999 FEW025 BECMG 2018/2020 VRB02KT 8000 BECMG 2100/2102 18010KT PROB40TEMPO 2106/2112 5000 RA SCT025 BKN080
Issued Jan-20 @ 11:00 UTC
(10 hours ago)
Valid From Jan-20 @ 12:00 UTC
(9 hours ago)
Valid To Jan-21 @ 12:00 UTC
(in 15 hours)
Jan-20 @ 12:00 - Jan-20 @ 18:00
Wind Visibility
270° at 10 knots 10,000+ meters
Clouds
  • Few at 2,500' AGL
Becoming Jan-20 @ 18:00 - Jan-21 @ 00:00
Wind Visibility
Variable at 2 knots 7,998 meters
Clouds
  • Few at 2,500' AGL
Becoming Jan-21 @ 00:00 - Jan-21 @ 12:00
Wind Visibility
180° at 10 knots 7,998 meters
Clouds
  • Few at 2,500' AGL
Probability 40% Temporary Jan-21 @ 06:00 - Jan-21 @ 12:00
Clouds
  • Scattered at 2,500' AGL
  • Broken at 8,000' AGL
Conditions
  • Rain